WZZ1778 EKBI-EPGD
Flight info
| Callsign | WZZ1778 |
|---|---|
| Flight time | 0h 55m |
| Altitude | 37000 |
| Route | RIDSI DCT RUMAR L983 DOMAG T240 OGDAV |
| Aircraft | A321/M-SDE1E2E3FGIJ1J4RWXY/LB1 |
Departure
| Time | 2025-10-08 10:31 |
|---|---|
| Airport | Billund Airport (EKBI) |
Arrival
| Time | 2025-10-08 11:27 |
|---|---|
| Airport | Gdańsk Lech Wałęsa Airport (EPGD) |
| Time | Latitude | Longitude | Altitude | Speed | Heading |
|---|---|---|---|---|---|
| 2025-10-08 10:13 | 55.74529 | 9.14680 | 227 ft | 0 kts | 358° |
| 2025-10-08 10:24 | 55.74446 | 9.14656 | 226 ft | 2 kts | 73° |
| 2025-10-08 10:25 | 55.74445 | 9.14647 | 226 ft | 0 kts | 87° |
| 2025-10-08 10:26 | 55.74430 | 9.14945 | 228 ft | 18 kts | 129° |
| 2025-10-08 10:27 | 55.74201 | 9.15123 | 229 ft | 18 kts | 88° |
| 2025-10-08 10:27 | 55.74214 | 9.15477 | 232 ft | 12 kts | 86° |
| 2025-10-08 10:28 | 55.74231 | 9.16099 | 236 ft | 26 kts | 84° |
| 2025-10-08 10:29 | 55.74253 | 9.16773 | 240 ft | 28 kts | 89° |
| 2025-10-08 10:29 | 55.74092 | 9.16803 | 242 ft | 22 kts | 255° |
| 2025-10-08 10:29 | 55.74070 | 9.16222 | 237 ft | 85 kts | 267° |
| 2025-10-08 10:30 | 55.74027 | 9.13036 | 1120 ft | 136 kts | 277° |
| 2025-10-08 10:30 | 55.75603 | 9.11130 | 2438 ft | 165 kts | 355° |
| 2025-10-08 10:31 | 55.77877 | 9.13721 | 3017 ft | 226 kts | 38° |
| 2025-10-08 10:31 | 55.80453 | 9.17922 | 4087 ft | 270 kts | 38° |
| 2025-10-08 10:32 | 55.83349 | 9.22501 | 5758 ft | 286 kts | 37° |
| 2025-10-08 10:33 | 55.86027 | 9.31870 | 8417 ft | 307 kts | 101° |
| 2025-10-08 10:33 | 55.83980 | 9.38446 | 10166 ft | 308 kts | 128° |
| 2025-10-08 10:33 | 55.82712 | 9.41544 | 10654 ft | 324 kts | 128° |
| 2025-10-08 10:34 | 55.79914 | 9.48432 | 11572 ft | 354 kts | 128° |
| 2025-10-08 10:34 | 55.77003 | 9.55661 | 13023 ft | 365 kts | 128° |
| 2025-10-08 10:35 | 55.74006 | 9.63083 | 14413 ft | 375 kts | 129° |
| 2025-10-08 10:35 | 55.70918 | 9.70687 | 15755 ft | 383 kts | 129° |
| 2025-10-08 10:36 | 55.67768 | 9.78417 | 17124 ft | 391 kts | 129° |
| 2025-10-08 10:37 | 55.62899 | 9.90293 | 19039 ft | 402 kts | 129° |
| 2025-10-08 10:37 | 55.61262 | 9.94329 | 19627 ft | 407 kts | 127° |
| 2025-10-08 10:37 | 55.58990 | 10.03553 | 20790 ft | 420 kts | 104° |
| 2025-10-08 10:38 | 55.58195 | 10.13898 | 21985 ft | 428 kts | 98° |
| 2025-10-08 10:38 | 55.57481 | 10.24455 | 23315 ft | 437 kts | 98° |
| 2025-10-08 10:39 | 55.57115 | 10.29804 | 23964 ft | 440 kts | 98° |
| 2025-10-08 10:39 | 55.56371 | 10.40612 | 24890 ft | 447 kts | 98° |
| 2025-10-08 10:40 | 55.54416 | 10.68372 | 27052 ft | 463 kts | 98° |
| 2025-10-08 10:42 | 55.51003 | 11.14619 | 30217 ft | 488 kts | 99° |
| 2025-10-08 10:44 | 55.47270 | 11.62724 | 33105 ft | 500 kts | 99° |
| 2025-10-08 10:46 | 55.43315 | 12.11127 | 36143 ft | 498 kts | 99° |
| 2025-10-08 10:48 | 55.39217 | 12.58852 | 37114 ft | 489 kts | 99° |
| 2025-10-08 10:50 | 55.35144 | 13.04083 | 37122 ft | 488 kts | 99° |
| 2025-10-08 10:52 | 55.30741 | 13.51109 | 37134 ft | 487 kts | 99° |
| 2025-10-08 10:54 | 55.26175 | 13.97732 | 37131 ft | 484 kts | 100° |
| 2025-10-08 10:56 | 55.21468 | 14.43995 | 37124 ft | 480 kts | 100° |
| 2025-10-08 10:58 | 55.16613 | 14.89790 | 37130 ft | 478 kts | 100° |
| 2025-10-08 11:00 | 55.11594 | 15.35466 | 37127 ft | 478 kts | 101° |
| 2025-10-08 11:02 | 55.07073 | 15.75218 | 37129 ft | 477 kts | 101° |
| 2025-10-08 11:04 | 55.02752 | 16.26567 | 37126 ft | 475 kts | 92° |
| 2025-10-08 11:06 | 55.01398 | 16.67214 | 33279 ft | 475 kts | 93° |
| 2025-10-08 11:08 | 54.99568 | 17.16870 | 28915 ft | 435 kts | 94° |
| 2025-10-08 11:10 | 54.98128 | 17.52312 | 26072 ft | 410 kts | 94° |
| 2025-10-08 11:11 | 54.95631 | 17.71175 | 24377 ft | 399 kts | 124° |
| 2025-10-08 11:12 | 54.90133 | 17.81824 | 23038 ft | 391 kts | 135° |
| 2025-10-08 11:12 | 54.86409 | 17.88579 | 22159 ft | 384 kts | 135° |
| 2025-10-08 11:13 | 54.82741 | 17.95200 | 21413 ft | 375 kts | 135° |
| 2025-10-08 11:13 | 54.79068 | 18.01301 | 20429 ft | 355 kts | 145° |
| 2025-10-08 11:14 | 54.77164 | 18.03755 | 20075 ft | 336 kts | 144° |
| 2025-10-08 11:14 | 54.73528 | 18.08496 | 19338 ft | 325 kts | 144° |
| 2025-10-08 11:15 | 54.68137 | 18.15530 | 18199 ft | 324 kts | 141° |
| 2025-10-08 11:15 | 54.66501 | 18.18204 | 17814 ft | 322 kts | 131° |
| 2025-10-08 11:16 | 54.60578 | 18.29579 | 16349 ft | 315 kts | 132° |
| 2025-10-08 11:16 | 54.59106 | 18.32393 | 15976 ft | 314 kts | 132° |
| 2025-10-08 11:17 | 54.56136 | 18.38042 | 14482 ft | 318 kts | 133° |
| 2025-10-08 11:17 | 54.53200 | 18.43606 | 12795 ft | 313 kts | 133° |
| 2025-10-08 11:18 | 54.50295 | 18.49110 | 11130 ft | 307 kts | 133° |
| 2025-10-08 11:18 | 54.48866 | 18.51815 | 10337 ft | 304 kts | 133° |
| 2025-10-08 11:19 | 54.46049 | 18.57135 | 8726 ft | 296 kts | 133° |
| 2025-10-08 11:19 | 54.43451 | 18.62042 | 7885 ft | 267 kts | 134° |
| 2025-10-08 11:20 | 54.41615 | 18.67460 | 6660 ft | 261 kts | 114° |
| 2025-10-08 11:20 | 54.39390 | 18.75754 | 4763 ft | 248 kts | 134° |
| 2025-10-08 11:21 | 54.35179 | 18.78008 | 3623 ft | 202 kts | 202° |
| 2025-10-08 11:21 | 54.33937 | 18.76966 | 3792 ft | 209 kts | 217° |
| 2025-10-08 11:22 | 54.32274 | 18.73116 | 3364 ft | 200 kts | 253° |
| 2025-10-08 11:22 | 54.32346 | 18.68405 | 2931 ft | 204 kts | 287° |
| 2025-10-08 11:23 | 54.33444 | 18.63991 | 2409 ft | 199 kts | 287° |
| 2025-10-08 11:23 | 54.34503 | 18.59749 | 1895 ft | 187 kts | 288° |
| 2025-10-08 11:24 | 54.35772 | 18.54655 | 1224 ft | 136 kts | 285° |
| 2025-10-08 11:25 | 54.36504 | 18.51688 | 841 ft | 135 kts | 289° |
| 2025-10-08 11:25 | 54.36870 | 18.50208 | 678 ft | 135 kts | 286° |
| 2025-10-08 11:25 | 54.37554 | 18.47442 | 464 ft | 97 kts | 293° |
| 2025-10-08 11:26 | 54.37892 | 18.46080 | 458 ft | 38 kts | 296° |
| 2025-10-08 11:26 | 54.38068 | 18.45747 | 455 ft | 12 kts | 323° |
| 2025-10-08 11:27 | 54.38133 | 18.45723 | 455 ft | 8 kts | 41° |
| 2025-10-08 11:27 | 54.38103 | 18.45943 | 459 ft | 11 kts | 115° |
| 2025-10-08 11:28 | 54.38165 | 18.46216 | 458 ft | 8 kts | 111° |
| 2025-10-08 11:29 | 54.38134 | 18.46338 | 457 ft | 5 kts | 110° |
| 2025-10-08 11:29 | 54.38141 | 18.46362 | 460 ft | 3 kts | 50° |
| 2025-10-08 11:29 | 54.38155 | 18.46372 | 460 ft | 0 kts | 25° |
| 2025-10-08 11:30 | 54.38173 | 18.46385 | 460 ft | 1 kts | 23° |
| 2025-10-08 11:30 | 54.38175 | 18.46386 | 460 ft | 0 kts | 23° |